sensor_id;sensor_type;location;lat;lon;timestamp;temperature;humidity
43458;DHT22;29046;54.184;18.680;2023-03-01T00:01:18;0.60;99.90
43458;DHT22;29046;54.184;18.680;2023-03-01T00:03:45;0.60;99.90
43458;DHT22;29046;54.184;18.680;2023-03-01T00:06:13;0.60;99.90
43458;DHT22;29046;54.184;18.680;2023-03-01T00:08:40;0.60;99.90
43458;DHT22;29046;54.184;18.680;2023-03-01T00:13:38;0.40;99.90
43458;DHT22;29046;54.184;18.680;2023-03-01T00:16:12;0.40;99.90
43458;DHT22;29046;54.184;18.680;2023-03-01T00:18:40;0.50;99.90
43458;DHT22;29046;54.184;18.680;2023-03-01T00:21:07;0.80;99.90
43458;DHT22;29046;54.184;18.680;2023-03-01T00:23:35;0.90;99.90
43458;DHT22;29046;54.184;18.680;2023-03-01T00:26:06;1.30;99.90
43458;DHT22;29046;54.184;18.680;2023-03-01T00:28:34;1.20;99.90
43458;DHT22;29046;54.184;18.680;2023-03-01T00:31:11;1.10;99.90
43458;DHT22;29046;54.184;18.680;2023-03-01T00:33:39;1.00;99.90
43458;DHT22;29046;54.184;18.680;2023-03-01T00:36:07;0.80;99.90
43458;DHT22;29046;54.184;18.680;2023-03-01T00:38:36;0.70;99.90
43458;DHT22;29046;54.184;18.680;2023-03-01T00:41:05;0.60;99.90
43458;DHT22;29046;54.184;18.680;2023-03-01T00:43:32;0.60;99.90
43458;DHT22;29046;54.184;18.680;2023-03-01T00:46:05;0.70;99.90
43458;DHT22;29046;54.184;18.680;2023-03-01T00:48:33;0.70;99.90
43458;DHT22;29046;54.184;18.680;2023-03-01T00:51:13;0.70;99.90
43458;DHT22;29046;54.184;18.680;2023-03-01T00:53:40;0.60;99.90
43458;DHT22;29046;54.184;18.680;2023-03-01T00:56:09;0.80;99.90
43458;DHT22;29046;54.184;18.680;2023-03-01T00:58:37;0.70;99.90
43458;DHT22;29046;54.184;18.680;2023-03-01T01:01:25;0.80;99.90
43458;DHT22;29046;54.184;18.680;2023-03-01T01:04:00;1.20;99.90
43458;DHT22;29046;54.184;18.680;2023-03-01T01:06:42;1.40;99.90
43458;DHT22;29046;54.184;18.680;2023-03-01T01:09:13;1.30;99.90
43458;DHT22;29046;54.184;18.680;2023-03-01T01:11:46;1.20;99.90
43458;DHT22;29046;54.184;18.680;2023-03-01T01:14:13;1.00;99.90
43458;DHT22;29046;54.184;18.680;2023-03-01T01:16:41;1.00;99.90
43458;DHT22;29046;54.184;18.680;2023-03-01T01:19:09;0.80;99.90
43458;DHT22;29046;54.184;18.680;2023-03-01T01:21:37;0.70;99.90
43458;DHT22;29046;54.184;18.680;2023-03-01T01:24:04;0.60;99.90
43458;DHT22;29046;54.184;18.680;2023-03-01T01:26:33;0.60;99.90
43458;DHT22;29046;54.184;18.680;2023-03-01T01:29:02;0.50;99.90
43458;DHT22;29046;54.184;18.680;2023-03-01T01:31:30;0.60;99.90
43458;DHT22;29046;54.184;18.680;2023-03-01T01:33:58;0.50;99.90
43458;DHT22;29046;54.184;18.680;2023-03-01T01:36:26;0.60;99.90
43458;DHT22;29046;54.184;18.680;2023-03-01T01:38:53;0.70;99.90
43458;DHT22;29046;54.184;18.680;2023-03-01T01:41:21;0.70;99.90
43458;DHT22;29046;54.184;18.680;2023-03-01T01:44:10;0.60;99.90
43458;DHT22;29046;54.184;18.680;2023-03-01T01:49:17;0.30;99.90
43458;DHT22;29046;54.184;18.680;2023-03-01T01:51:48;0.20;99.90
43458;DHT22;29046;54.184;18.680;2023-03-01T01:54:19;0.20;99.90
43458;DHT22;29046;54.184;18.680;2023-03-01T01:56:57;0.10;99.90
43458;DHT22;29046;54.184;18.680;2023-03-01T01:59:25;0.10;99.90
43458;DHT22;29046;54.184;18.680;2023-03-01T02:01:54;0.20;99.90
43458;DHT22;29046;54.184;18.680;2023-03-01T02:04:22;0.20;99.90
43458;DHT22;29046;54.184;18.680;2023-03-01T02:06:55;0.20;99.90
43458;DHT22;29046;54.184;18.680;2023-03-01T02:09:24;0.00;99.90
43458;DHT22;29046;54.184;18.680;2023-03-01T02:11:52;-0.10;99.90
43458;DHT22;29046;54.184;18.680;2023-03-01T02:14:20;-0.10;99.90
43458;DHT22;29046;54.184;18.680;2023-03-01T02:16:47;-0.10;99.90
43458;DHT22;29046;54.184;18.680;2023-03-01T02:25:08;0.00;99.90
43458;DHT22;29046;54.184;18.680;2023-03-01T02:27:54;-0.20;99.90
43458;DHT22;29046;54.184;18.680;2023-03-01T02:30:25;-0.40;99.90
43458;DHT22;29046;54.184;18.680;2023-03-01T02:32:56;-0.50;99.90
43458;DHT22;29046;54.184;18.680;2023-03-01T02:35:35;-0.60;99.90
43458;DHT22;29046;54.184;18.680;2023-03-01T02:38:07;-0.50;99.90
43458;DHT22;29046;54.184;18.680;2023-03-01T02:40:36;-0.60;99.90
43458;DHT22;29046;54.184;18.680;2023-03-01T02:43:09;-0.60;99.90
43458;DHT22;29046;54.184;18.680;2023-03-01T02:45:36;-0.60;99.90
43458;DHT22;29046;54.184;18.680;2023-03-01T02:48:04;-0.40;99.90
43458;DHT22;29046;54.184;18.680;2023-03-01T02:53:27;-0.60;99.90
43458;DHT22;29046;54.184;18.680;2023-03-01T02:55:55;-0.40;99.90
43458;DHT22;29046;54.184;18.680;2023-03-01T02:58:22;-0.10;99.90
43458;DHT22;29046;54.184;18.680;2023-03-01T03:00:50;0.30;99.90
43458;DHT22;29046;54.184;18.680;2023-03-01T03:03:20;0.40;99.90
43458;DHT22;29046;54.184;18.680;2023-03-01T03:05:47;0.20;99.90
43458;DHT22;29046;54.184;18.680;2023-03-01T03:08:15;-0.20;99.90
43458;DHT22;29046;54.184;18.680;2023-03-01T03:10:51;-0.40;99.90
43458;DHT22;29046;54.184;18.680;2023-03-01T03:13:18;-0.70;99.90
43458;DHT22;29046;54.184;18.680;2023-03-01T03:15:45;-0.90;99.90
43458;DHT22;29046;54.184;18.680;2023-03-01T03:18:17;-0.80;99.90
43458;DHT22;29046;54.184;18.680;2023-03-01T03:20:45;-0.90;99.90
43458;DHT22;29046;54.184;18.680;2023-03-01T03:23:13;-0.80;99.90
43458;DHT22;29046;54.184;18.680;2023-03-01T03:25:40;-0.80;99.90
43458;DHT22;29046;54.184;18.680;2023-03-01T03:28:07;-0.70;99.90
43458;DHT22;29046;54.184;18.680;2023-03-01T03:30:38;-0.60;99.90
43458;DHT22;29046;54.184;18.680;2023-03-01T03:33:06;-0.60;99.90
43458;DHT22;29046;54.184;18.680;2023-03-01T03:35:39;-0.40;99.90
43458;DHT22;29046;54.184;18.680;2023-03-01T03:38:09;-0.40;99.90
43458;DHT22;29046;54.184;18.680;2023-03-01T03:40:45;-0.50;99.90
43458;DHT22;29046;54.184;18.680;2023-03-01T03:43:18;-0.70;99.90
43458;DHT22;29046;54.184;18.680;2023-03-01T03:45:47;-1.00;99.90
43458;DHT22;29046;54.184;18.680;2023-03-01T03:48:16;-1.10;99.90
43458;DHT22;29046;54.184;18.680;2023-03-01T03:50:47;-1.20;99.90
43458;DHT22;29046;54.184;18.680;2023-03-01T03:53:15;-1.10;99.90
43458;DHT22;29046;54.184;18.680;2023-03-01T03:55:42;-0.90;99.90
43458;DHT22;29046;54.184;18.680;2023-03-01T03:58:11;-0.60;99.90
43458;DHT22;29046;54.184;18.680;2023-03-01T04:00:41;-0.20;99.90
43458;DHT22;29046;54.184;18.680;2023-03-01T04:03:09;0.00;99.90
43458;DHT22;29046;54.184;18.680;2023-03-01T04:05:38;0.10;99.90
43458;DHT22;29046;54.184;18.680;2023-03-01T04:08:06;0.20;99.90
43458;DHT22;29046;54.184;18.680;2023-03-01T04:10:36;0.20;99.90
43458;DHT22;29046;54.184;18.680;2023-03-01T04:13:06;-0.20;99.90
43458;DHT22;29046;54.184;18.680;2023-03-01T04:15:34;-0.50;99.90
43458;DHT22;29046;54.184;18.680;2023-03-01T04:18:02;-0.60;99.90
43458;DHT22;29046;54.184;18.680;2023-03-01T04:20:31;-0.80;99.90
43458;DHT22;29046;54.184;18.680;2023-03-01T04:25:53;-1.20;99.90
43458;DHT22;29046;54.184;18.680;2023-03-01T04:30:55;-1.20;99.90
43458;DHT22;29046;54.184;18.680;2023-03-01T04:33:24;-0.80;99.90
43458;DHT22;29046;54.184;18.680;2023-03-01T04:35:51;-0.60;99.90
43458;DHT22;29046;54.184;18.680;2023-03-01T04:38:19;-0.30;99.90
43458;DHT22;29046;54.184;18.680;2023-03-01T04:40:46;-0.20;99.90
43458;DHT22;29046;54.184;18.680;2023-03-01T04:43:14;-0.10;99.90
43458;DHT22;29046;54.184;18.680;2023-03-01T04:45:41;-0.10;99.90
43458;DHT22;29046;54.184;18.680;2023-03-01T04:48:09;-0.10;99.90
43458;DHT22;29046;54.184;18.680;2023-03-01T04:50:36;-0.10;99.90
43458;DHT22;29046;54.184;18.680;2023-03-01T04:53:03;0.00;99.90
43458;DHT22;29046;54.184;18.680;2023-03-01T04:55:30;-0.10;99.90
43458;DHT22;29046;54.184;18.680;2023-03-01T04:57:58;-0.10;99.90
43458;DHT22;29046;54.184;18.680;2023-03-01T05:00:26;-0.20;99.90
43458;DHT22;29046;54.184;18.680;2023-03-01T05:02:56;-0.20;99.90
43458;DHT22;29046;54.184;18.680;2023-03-01T05:05:24;-0.10;99.90
43458;DHT22;29046;54.184;18.680;2023-03-01T05:07:57;0.00;99.90
43458;DHT22;29046;54.184;18.680;2023-03-01T05:10:26;0.20;99.90
43458;DHT22;29046;54.184;18.680;2023-03-01T05:12:53;0.30;99.90
43458;DHT22;29046;54.184;18.680;2023-03-01T05:15:21;0.30;99.90
43458;DHT22;29046;54.184;18.680;2023-03-01T05:17:49;0.20;99.90
43458;DHT22;29046;54.184;18.680;2023-03-01T05:20:16;0.10;99.90
43458;DHT22;29046;54.184;18.680;2023-03-01T05:22:43;-0.20;99.90
43458;DHT22;29046;54.184;18.680;2023-03-01T05:25:12;-0.30;99.90
43458;DHT22;29046;54.184;18.680;2023-03-01T05:27:41;-0.30;99.90
43458;DHT22;29046;54.184;18.680;2023-03-01T05:30:09;-0.30;99.90
43458;DHT22;29046;54.184;18.680;2023-03-01T05:32:47;-0.30;99.90
43458;DHT22;29046;54.184;18.680;2023-03-01T05:35:16;-0.40;99.90
43458;DHT22;29046;54.184;18.680;2023-03-01T05:37:45;-0.40;99.90
43458;DHT22;29046;54.184;18.680;2023-03-01T05:40:18;-0.40;99.90
43458;DHT22;29046;54.184;18.680;2023-03-01T05:42:49;-0.60;99.90
43458;DHT22;29046;54.184;18.680;2023-03-01T05:45:17;-0.70;99.90
43458;DHT22;29046;54.184;18.680;2023-03-01T05:47:46;-0.80;99.90
43458;DHT22;29046;54.184;18.680;2023-03-01T05:52:50;-1.10;99.90
43458;DHT22;29046;54.184;18.680;2023-03-01T05:55:19;-1.10;99.90
43458;DHT22;29046;54.184;18.680;2023-03-01T05:57:47;-0.90;99.90
43458;DHT22;29046;54.184;18.680;2023-03-01T06:00:16;-0.80;99.90
43458;DHT22;29046;54.184;18.680;2023-03-01T06:02:45;-0.50;99.90
43458;DHT22;29046;54.184;18.680;2023-03-01T06:05:13;-0.40;99.90
43458;DHT22;29046;54.184;18.680;2023-03-01T06:07:41;-0.30;99.90
43458;DHT22;29046;54.184;18.680;2023-03-01T06:10:09;-0.20;99.90
43458;DHT22;29046;54.184;18.680;2023-03-01T06:12:38;-0.10;99.90
43458;DHT22;29046;54.184;18.680;2023-03-01T06:15:06;-0.10;99.90
43458;DHT22;29046;54.184;18.680;2023-03-01T06:17:38;-0.30;99.90
43458;DHT22;29046;54.184;18.680;2023-03-01T06:20:09;-0.50;99.90
43458;DHT22;29046;54.184;18.680;2023-03-01T06:22:37;-0.50;99.90
43458;DHT22;29046;54.184;18.680;2023-03-01T06:25:05;-0.50;99.90
43458;DHT22;29046;54.184;18.680;2023-03-01T06:27:32;-0.20;99.90
43458;DHT22;29046;54.184;18.680;2023-03-01T06:29:59;0.20;99.90
43458;DHT22;29046;54.184;18.680;2023-03-01T06:32:27;0.50;99.90
43458;DHT22;29046;54.184;18.680;2023-03-01T06:34:54;0.80;99.90
43458;DHT22;29046;54.184;18.680;2023-03-01T06:37:21;0.90;99.90
43458;DHT22;29046;54.184;18.680;2023-03-01T06:39:48;1.10;99.90
43458;DHT22;29046;54.184;18.680;2023-03-01T06:42:16;1.10;99.90
43458;DHT22;29046;54.184;18.680;2023-03-01T06:44:44;1.30;99.90
43458;DHT22;29046;54.184;18.680;2023-03-01T06:47:11;1.50;99.90
43458;DHT22;29046;54.184;18.680;2023-03-01T06:49:38;1.70;99.90
43458;DHT22;29046;54.184;18.680;2023-03-01T06:52:06;2.10;99.90
43458;DHT22;29046;54.184;18.680;2023-03-01T06:54:33;2.20;99.90
43458;DHT22;29046;54.184;18.680;2023-03-01T06:57:01;2.70;99.90
43458;DHT22;29046;54.184;18.680;2023-03-01T06:59:28;3.30;99.90
43458;DHT22;29046;54.184;18.680;2023-03-01T07:01:55;3.50;99.90
43458;DHT22;29046;54.184;18.680;2023-03-01T07:04:22;3.70;99.90
43458;DHT22;29046;54.184;18.680;2023-03-01T07:06:49;4.10;99.90
43458;DHT22;29046;54.184;18.680;2023-03-01T07:09:22;4.20;99.90
43458;DHT22;29046;54.184;18.680;2023-03-01T07:11:50;4.20;99.90
43458;DHT22;29046;54.184;18.680;2023-03-01T07:14:17;4.10;99.90
43458;DHT22;29046;54.184;18.680;2023-03-01T07:16:46;4.00;99.90
43458;DHT22;29046;54.184;18.680;2023-03-01T07:19:13;3.60;99.90
43458;DHT22;29046;54.184;18.680;2023-03-01T07:21:41;3.30;99.90
43458;DHT22;29046;54.184;18.680;2023-03-01T07:24:08;3.10;99.90
43458;DHT22;29046;54.184;18.680;2023-03-01T07:26:35;3.30;99.90
43458;DHT22;29046;54.184;18.680;2023-03-01T07:29:05;3.80;99.90
43458;DHT22;29046;54.184;18.680;2023-03-01T07:31:33;4.30;99.90
43458;DHT22;29046;54.184;18.680;2023-03-01T07:34:00;4.70;99.90
43458;DHT22;29046;54.184;18.680;2023-03-01T07:36:28;5.30;99.90
43458;DHT22;29046;54.184;18.680;2023-03-01T07:38:55;5.50;99.90
43458;DHT22;29046;54.184;18.680;2023-03-01T07:41:23;5.10;99.90
43458;DHT22;29046;54.184;18.680;2023-03-01T07:43:50;4.90;99.90
43458;DHT22;29046;54.184;18.680;2023-03-01T07:46:17;4.90;99.90
43458;DHT22;29046;54.184;18.680;2023-03-01T07:48:45;5.00;99.90
43458;DHT22;29046;54.184;18.680;2023-03-01T07:51:13;5.00;99.90
43458;DHT22;29046;54.184;18.680;2023-03-01T07:53:40;4.90;99.90
43458;DHT22;29046;54.184;18.680;2023-03-01T07:56:10;5.00;99.90
43458;DHT22;29046;54.184;18.680;2023-03-01T07:58:38;5.10;99.90
43458;DHT22;29046;54.184;18.680;2023-03-01T08:01:08;6.10;99.90
43458;DHT22;29046;54.184;18.680;2023-03-01T08:03:36;6.70;99.90
43458;DHT22;29046;54.184;18.680;2023-03-01T08:06:05;6.90;99.90
43458;DHT22;29046;54.184;18.680;2023-03-01T08:08:33;6.90;99.90
43458;DHT22;29046;54.184;18.680;2023-03-01T08:11:01;7.30;99.90
43458;DHT22;29046;54.184;18.680;2023-03-01T08:13:30;7.80;99.90
43458;DHT22;29046;54.184;18.680;2023-03-01T08:16:02;8.00;99.90
43458;DHT22;29046;54.184;18.680;2023-03-01T08:18:29;8.50;99.90
43458;DHT22;29046;54.184;18.680;2023-03-01T08:21:14;8.10;99.90
43458;DHT22;29046;54.184;18.680;2023-03-01T08:23:41;7.50;99.90
43458;DHT22;29046;54.184;18.680;2023-03-01T08:26:15;7.30;99.90
43458;DHT22;29046;54.184;18.680;2023-03-01T08:28:42;7.50;99.90
43458;DHT22;29046;54.184;18.680;2023-03-01T08:31:15;7.60;99.90
43458;DHT22;29046;54.184;18.680;2023-03-01T08:33:43;8.30;99.90
43458;DHT22;29046;54.184;18.680;2023-03-01T08:36:10;8.60;99.90
43458;DHT22;29046;54.184;18.680;2023-03-01T08:38:37;9.40;99.90
43458;DHT22;29046;54.184;18.680;2023-03-01T08:41:05;10.10;97.90
43458;DHT22;29046;54.184;18.680;2023-03-01T08:43:32;11.10;95.40
43458;DHT22;29046;54.184;18.680;2023-03-01T08:46:00;12.20;90.40
43458;DHT22;29046;54.184;18.680;2023-03-01T08:48:28;12.50;84.10
43458;DHT22;29046;54.184;18.680;2023-03-01T08:50:55;12.10;87.60
43458;DHT22;29046;54.184;18.680;2023-03-01T08:53:23;11.10;90.80
43458;DHT22;29046;54.184;18.680;2023-03-01T08:55:52;10.80;91.80
43458;DHT22;29046;54.184;18.680;2023-03-01T08:58:19;11.10;93.50
43458;DHT22;29046;54.184;18.680;2023-03-01T09:00:46;11.20;92.20
43458;DHT22;29046;54.184;18.680;2023-03-01T09:03:13;10.90;93.10
43458;DHT22;29046;54.184;18.680;2023-03-01T09:05:41;10.50;93.00
43458;DHT22;29046;54.184;18.680;2023-03-01T09:08:08;10.50;95.90
43458;DHT22;29046;54.184;18.680;2023-03-01T09:10:38;10.70;94.00
43458;DHT22;29046;54.184;18.680;2023-03-01T09:13:05;11.20;91.60
43458;DHT22;29046;54.184;18.680;2023-03-01T09:15:33;11.60;89.40
43458;DHT22;29046;54.184;18.680;2023-03-01T09:18:00;11.90;88.10
43458;DHT22;29046;54.184;18.680;2023-03-01T09:20:28;11.90;86.70
43458;DHT22;29046;54.184;18.680;2023-03-01T09:22:58;12.10;83.20
43458;DHT22;29046;54.184;18.680;2023-03-01T09:25:25;12.30;83.20
43458;DHT22;29046;54.184;18.680;2023-03-01T09:27:53;12.40;82.50
43458;DHT22;29046;54.184;18.680;2023-03-01T09:30:21;12.30;83.20
43458;DHT22;29046;54.184;18.680;2023-03-01T09:32:48;12.40;83.90
43458;DHT22;29046;54.184;18.680;2023-03-01T09:35:16;12.50;80.90
43458;DHT22;29046;54.184;18.680;2023-03-01T09:37:43;12.40;83.20
43458;DHT22;29046;54.184;18.680;2023-03-01T09:40:21;12.60;85.00
43458;DHT22;29046;54.184;18.680;2023-03-01T09:43:05;13.10;76.80
43458;DHT22;29046;54.184;18.680;2023-03-01T09:45:40;13.20;79.50
43458;DHT22;29046;54.184;18.680;2023-03-01T09:48:14;13.60;76.60
43458;DHT22;29046;54.184;18.680;2023-03-01T09:50:44;13.90;81.00
43458;DHT22;29046;54.184;18.680;2023-03-01T09:53:21;14.50;82.30
43458;DHT22;29046;54.184;18.680;2023-03-01T09:55:58;15.00;80.10
43458;DHT22;29046;54.184;18.680;2023-03-01T10:01:02;14.80;73.40
43458;DHT22;29046;54.184;18.680;2023-03-01T10:06:04;14.90;71.20
43458;DHT22;29046;54.184;18.680;2023-03-01T10:11:22;14.50;76.20
43458;DHT22;29046;54.184;18.680;2023-03-01T10:14:15;14.60;74.80
43458;DHT22;29046;54.184;18.680;2023-03-01T10:16:55;14.70;74.10
43458;DHT22;29046;54.184;18.680;2023-03-01T10:19:41;15.00;74.00
43458;DHT22;29046;54.184;18.680;2023-03-01T10:22:16;15.20;72.30
43458;DHT22;29046;54.184;18.680;2023-03-01T10:24:44;15.20;69.60
43458;DHT22;29046;54.184;18.680;2023-03-01T10:27:24;15.00;68.80
43458;DHT22;29046;54.184;18.680;2023-03-01T10:30:01;15.00;68.10
43458;DHT22;29046;54.184;18.680;2023-03-01T10:32:33;14.40;68.90
43458;DHT22;29046;54.184;18.680;2023-03-01T10:35:00;13.30;71.80
43458;DHT22;29046;54.184;18.680;2023-03-01T10:37:27;12.20;78.20
43458;DHT22;29046;54.184;18.680;2023-03-01T10:40:07;10.70;87.20
43458;DHT22;29046;54.184;18.680;2023-03-01T10:42:38;9.40;94.80
43458;DHT22;29046;54.184;18.680;2023-03-01T10:45:34;8.80;98.80
43458;DHT22;29046;54.184;18.680;2023-03-01T10:50:51;8.20;99.90
43458;DHT22;29046;54.184;18.680;2023-03-01T10:58:26;8.20;99.90
43458;DHT22;29046;54.184;18.680;2023-03-01T11:01:00;8.90;99.90
43458;DHT22;29046;54.184;18.680;2023-03-01T11:03:31;9.50;99.90
43458;DHT22;29046;54.184;18.680;2023-03-01T11:06:03;8.70;99.90
43458;DHT22;29046;54.184;18.680;2023-03-01T11:08:37;8.10;99.90
43458;DHT22;29046;54.184;18.680;2023-03-01T11:11:05;7.60;99.90
43458;DHT22;29046;54.184;18.680;2023-03-01T11:13:33;7.30;99.90
43458;DHT22;29046;54.184;18.680;2023-03-01T11:16:07;7.30;99.90
43458;DHT22;29046;54.184;18.680;2023-03-01T11:18:37;7.20;99.90
43458;DHT22;29046;54.184;18.680;2023-03-01T11:21:15;7.20;99.90
43458;DHT22;29046;54.184;18.680;2023-03-01T11:23:45;7.50;99.90
43458;DHT22;29046;54.184;18.680;2023-03-01T11:26:13;7.80;99.90
43458;DHT22;29046;54.184;18.680;2023-03-01T11:28:45;7.60;99.90
43458;DHT22;29046;54.184;18.680;2023-03-01T11:31:13;7.90;99.90
43458;DHT22;29046;54.184;18.680;2023-03-01T11:33:50;7.80;99.90
43458;DHT22;29046;54.184;18.680;2023-03-01T11:38:55;7.60;99.90
43458;DHT22;29046;54.184;18.680;2023-03-01T11:41:27;7.50;99.90
43458;DHT22;29046;54.184;18.680;2023-03-01T11:46:44;7.30;99.90
43458;DHT22;29046;54.184;18.680;2023-03-01T11:49:33;7.30;99.90
43458;DHT22;29046;54.184;18.680;2023-03-01T11:52:05;7.20;99.90
43458;DHT22;29046;54.184;18.680;2023-03-01T11:57:20;7.40;99.90
43458;DHT22;29046;54.184;18.680;2023-03-01T12:00:07;7.50;99.90
43458;DHT22;29046;54.184;18.680;2023-03-01T12:02:44;7.40;99.90
43458;DHT22;29046;54.184;18.680;2023-03-01T12:08:33;7.50;99.90
43458;DHT22;29046;54.184;18.680;2023-03-01T12:14:50;7.40;99.90
43458;DHT22;29046;54.184;18.680;2023-03-01T12:26:26;7.20;99.90
43458;DHT22;29046;54.184;18.680;2023-03-01T12:48:16;7.80;99.90
43458;DHT22;29046;54.184;18.680;2023-03-01T12:50:51;7.70;99.90
43458;DHT22;29046;54.184;18.680;2023-03-01T12:53:27;7.70;99.90
43458;DHT22;29046;54.184;18.680;2023-03-01T12:56:05;7.60;99.90
43458;DHT22;29046;54.184;18.680;2023-03-01T13:07:02;8.50;99.90
43458;DHT22;29046;54.184;18.680;2023-03-01T13:12:03;8.60;99.90
43458;DHT22;29046;54.184;18.680;2023-03-01T13:14:53;8.30;99.90
43458;DHT22;29046;54.184;18.680;2023-03-01T13:17:33;8.30;99.90
43458;DHT22;29046;54.184;18.680;2023-03-01T13:20:00;8.10;99.90
43458;DHT22;29046;54.184;18.680;2023-03-01T13:22:32;8.00;99.90
43458;DHT22;29046;54.184;18.680;2023-03-01T13:25:22;8.10;99.90
43458;DHT22;29046;54.184;18.680;2023-03-01T13:31:08;8.30;99.90
43458;DHT22;29046;54.184;18.680;2023-03-01T13:33:48;8.50;99.90
43458;DHT22;29046;54.184;18.680;2023-03-01T13:44:17;8.60;99.90
43458;DHT22;29046;54.184;18.680;2023-03-01T13:46:48;8.60;99.90
43458;DHT22;29046;54.184;18.680;2023-03-01T13:49:19;8.70;99.90
43458;DHT22;29046;54.184;18.680;2023-03-01T13:51:48;8.70;99.90
43458;DHT22;29046;54.184;18.680;2023-03-01T13:54:26;8.80;99.90
43458;DHT22;29046;54.184;18.680;2023-03-01T13:56:58;8.80;99.90
43458;DHT22;29046;54.184;18.680;2023-03-01T13:59:26;8.60;99.90
43458;DHT22;29046;54.184;18.680;2023-03-01T14:01:56;8.60;99.90
43458;DHT22;29046;54.184;18.680;2023-03-01T14:04:33;8.80;99.90
43458;DHT22;29046;54.184;18.680;2023-03-01T14:07:22;8.90;99.90
43458;DHT22;29046;54.184;18.680;2023-03-01T14:09:58;8.90;99.90
43458;DHT22;29046;54.184;18.680;2023-03-01T14:12:52;8.90;99.90
43458;DHT22;29046;54.184;18.680;2023-03-01T14:15:50;8.70;99.90
43458;DHT22;29046;54.184;18.680;2023-03-01T14:18:52;9.10;99.90
43458;DHT22;29046;54.184;18.680;2023-03-01T14:21:22;9.60;99.90
43458;DHT22;29046;54.184;18.680;2023-03-01T14:23:49;9.50;99.90
43458;DHT22;29046;54.184;18.680;2023-03-01T14:26:21;9.30;99.90
43458;DHT22;29046;54.184;18.680;2023-03-01T14:28:49;9.20;99.90
43458;DHT22;29046;54.184;18.680;2023-03-01T14:31:37;9.40;99.90
43458;DHT22;29046;54.184;18.680;2023-03-01T14:34:23;9.90;99.60
43458;DHT22;29046;54.184;18.680;2023-03-01T14:36:50;10.20;98.10
43458;DHT22;29046;54.184;18.680;2023-03-01T14:39:24;10.10;98.10
43458;DHT22;29046;54.184;18.680;2023-03-01T14:41:53;10.10;98.00
43458;DHT22;29046;54.184;18.680;2023-03-01T14:44:23;9.80;98.60
43458;DHT22;29046;54.184;18.680;2023-03-01T14:46:53;9.50;99.30
43458;DHT22;29046;54.184;18.680;2023-03-01T14:49:25;9.30;99.90
43458;DHT22;29046;54.184;18.680;2023-03-01T14:54:27;9.70;99.50
43458;DHT22;29046;54.184;18.680;2023-03-01T14:56:59;9.60;99.40
43458;DHT22;29046;54.184;18.680;2023-03-01T14:59:27;9.70;99.70
43458;DHT22;29046;54.184;18.680;2023-03-01T15:01:57;9.80;99.10
43458;DHT22;29046;54.184;18.680;2023-03-01T15:04:26;9.60;99.60
43458;DHT22;29046;54.184;18.680;2023-03-01T15:06:55;9.30;99.90
43458;DHT22;29046;54.184;18.680;2023-03-01T15:09:34;8.80;99.90
43458;DHT22;29046;54.184;18.680;2023-03-01T15:14:56;8.30;99.90
43458;DHT22;29046;54.184;18.680;2023-03-01T15:17:33;8.30;99.90
43458;DHT22;29046;54.184;18.680;2023-03-01T15:20:04;8.40;99.90
43458;DHT22;29046;54.184;18.680;2023-03-01T15:22:33;8.40;99.90
43458;DHT22;29046;54.184;18.680;2023-03-01T15:25:01;8.50;99.90
43458;DHT22;29046;54.184;18.680;2023-03-01T15:27:29;8.50;99.90
43458;DHT22;29046;54.184;18.680;2023-03-01T15:29:59;8.50;99.90
43458;DHT22;29046;54.184;18.680;2023-03-01T15:32:30;8.40;99.90
43458;DHT22;29046;54.184;18.680;2023-03-01T15:34:59;8.10;99.90
43458;DHT22;29046;54.184;18.680;2023-03-01T15:37:53;7.60;99.90
43458;DHT22;29046;54.184;18.680;2023-03-01T15:40:26;7.20;99.90
43458;DHT22;29046;54.184;18.680;2023-03-01T15:43:05;7.20;99.90
43458;DHT22;29046;54.184;18.680;2023-03-01T15:45:33;7.10;99.90
43458;DHT22;29046;54.184;18.680;2023-03-01T15:48:04;6.90;99.90
43458;DHT22;29046;54.184;18.680;2023-03-01T15:50:36;6.80;99.90
43458;DHT22;29046;54.184;18.680;2023-03-01T15:53:11;6.70;99.90
43458;DHT22;29046;54.184;18.680;2023-03-01T15:55:39;6.60;99.90
43458;DHT22;29046;54.184;18.680;2023-03-01T15:58:13;6.50;99.90
43458;DHT22;29046;54.184;18.680;2023-03-01T16:00:40;6.20;99.90
43458;DHT22;29046;54.184;18.680;2023-03-01T16:03:25;6.00;99.90
43458;DHT22;29046;54.184;18.680;2023-03-01T16:05:53;5.80;99.90
43458;DHT22;29046;54.184;18.680;2023-03-01T16:08:20;5.60;99.90
43458;DHT22;29046;54.184;18.680;2023-03-01T16:10:48;5.60;99.90
43458;DHT22;29046;54.184;18.680;2023-03-01T16:13:18;5.60;99.90
43458;DHT22;29046;54.184;18.680;2023-03-01T16:15:46;5.50;99.90
43458;DHT22;29046;54.184;18.680;2023-03-01T16:18:13;5.50;99.90
43458;DHT22;29046;54.184;18.680;2023-03-01T16:20:40;5.40;99.90
43458;DHT22;29046;54.184;18.680;2023-03-01T16:23:10;5.30;99.90
43458;DHT22;29046;54.184;18.680;2023-03-01T16:25:38;5.20;99.90
43458;DHT22;29046;54.184;18.680;2023-03-01T16:28:06;5.10;99.90
43458;DHT22;29046;54.184;18.680;2023-03-01T16:30:39;5.00;99.90
43458;DHT22;29046;54.184;18.680;2023-03-01T16:33:08;4.90;99.90
43458;DHT22;29046;54.184;18.680;2023-03-01T16:35:52;4.80;99.90
43458;DHT22;29046;54.184;18.680;2023-03-01T16:38:19;4.70;99.90
43458;DHT22;29046;54.184;18.680;2023-03-01T16:40:49;4.70;99.90
43458;DHT22;29046;54.184;18.680;2023-03-01T16:43:16;4.60;99.90
43458;DHT22;29046;54.184;18.680;2023-03-01T16:45:43;4.50;99.90
43458;DHT22;29046;54.184;18.680;2023-03-01T16:48:13;4.50;99.90
43458;DHT22;29046;54.184;18.680;2023-03-01T16:50:40;4.50;99.90
43458;DHT22;29046;54.184;18.680;2023-03-01T16:53:07;4.40;99.90
43458;DHT22;29046;54.184;18.680;2023-03-01T16:55:35;4.40;99.90
43458;DHT22;29046;54.184;18.680;2023-03-01T16:58:02;4.30;99.90
43458;DHT22;29046;54.184;18.680;2023-03-01T17:00:31;4.30;99.90
43458;DHT22;29046;54.184;18.680;2023-03-01T17:02:58;4.30;99.90
43458;DHT22;29046;54.184;18.680;2023-03-01T17:05:25;4.20;99.90
43458;DHT22;29046;54.184;18.680;2023-03-01T17:07:53;4.10;99.90
43458;DHT22;29046;54.184;18.680;2023-03-01T17:10:22;4.10;99.90
43458;DHT22;29046;54.184;18.680;2023-03-01T17:12:49;3.80;99.90
43458;DHT22;29046;54.184;18.680;2023-03-01T17:15:17;3.50;99.90
43458;DHT22;29046;54.184;18.680;2023-03-01T17:17:44;3.50;99.90
43458;DHT22;29046;54.184;18.680;2023-03-01T17:20:11;3.50;99.90
43458;DHT22;29046;54.184;18.680;2023-03-01T17:22:39;3.70;99.90
43458;DHT22;29046;54.184;18.680;2023-03-01T17:25:08;3.50;99.90
43458;DHT22;29046;54.184;18.680;2023-03-01T17:27:37;3.60;99.90
43458;DHT22;29046;54.184;18.680;2023-03-01T17:30:06;3.50;99.90
43458;DHT22;29046;54.184;18.680;2023-03-01T17:32:34;3.60;99.90
43458;DHT22;29046;54.184;18.680;2023-03-01T17:35:02;3.90;99.90